sensor_id;sensor_type;location;lat;lon;timestamp;temperature;humidity
7498;DHT22;3790;48.806;9.140;2022-07-15T00:04:34;24.00;90.20
7498;DHT22;3790;48.806;9.140;2022-07-15T00:09:35;23.90;90.10
7498;DHT22;3790;48.806;9.140;2022-07-15T00:14:54;23.90;90.20
7498;DHT22;3790;48.806;9.140;2022-07-15T00:19:54;23.80;90.10
7498;DHT22;3790;48.806;9.140;2022-07-15T00:24:55;23.80;90.20
7498;DHT22;3790;48.806;9.140;2022-07-15T00:29:55;23.70;90.50
7498;DHT22;3790;48.806;9.140;2022-07-15T00:34:58;23.50;90.10
7498;DHT22;3790;48.806;9.140;2022-07-15T00:39:59;23.50;90.20
7498;DHT22;3790;48.806;9.140;2022-07-15T00:45:00;23.30;90.20
7498;DHT22;3790;48.806;9.140;2022-07-15T00:50:00;23.40;90.20
7498;DHT22;3790;48.806;9.140;2022-07-15T00:55:02;23.20;90.20
7498;DHT22;3790;48.806;9.140;2022-07-15T01:00:05;23.20;90.20
7498;DHT22;3790;48.806;9.140;2022-07-15T01:05:08;23.20;90.20
7498;DHT22;3790;48.806;9.140;2022-07-15T01:10:11;23.10;90.20
7498;DHT22;3790;48.806;9.140;2022-07-15T01:15:11;23.10;90.20
7498;DHT22;3790;48.806;9.140;2022-07-15T01:20:13;23.10;90.20
7498;DHT22;3790;48.806;9.140;2022-07-15T01:25:14;23.00;90.20
7498;DHT22;3790;48.806;9.140;2022-07-15T01:30:14;23.00;90.20
7498;DHT22;3790;48.806;9.140;2022-07-15T01:35:15;22.90;90.10
7498;DHT22;3790;48.806;9.140;2022-07-15T01:40:15;22.90;90.10
7498;DHT22;3790;48.806;9.140;2022-07-15T01:45:16;22.90;90.10
7498;DHT22;3790;48.806;9.140;2022-07-15T01:50:17;22.80;90.10
7498;DHT22;3790;48.806;9.140;2022-07-15T01:55:17;22.80;90.10
7498;DHT22;3790;48.806;9.140;2022-07-15T02:00:18;22.80;90.10
7498;DHT22;3790;48.806;9.140;2022-07-15T02:05:18;22.70;90.00
7498;DHT22;3790;48.806;9.140;2022-07-15T02:10:19;22.70;90.00
7498;DHT22;3790;48.806;9.140;2022-07-15T02:15:20;22.70;90.00
7498;DHT22;3790;48.806;9.140;2022-07-15T02:20:20;22.60;90.00
7498;DHT22;3790;48.806;9.140;2022-07-15T02:25:21;22.60;90.00
7498;DHT22;3790;48.806;9.140;2022-07-15T02:30:25;22.50;90.00
7498;DHT22;3790;48.806;9.140;2022-07-15T02:35:26;22.50;90.10
7498;DHT22;3790;48.806;9.140;2022-07-15T02:40:27;22.40;89.90
7498;DHT22;3790;48.806;9.140;2022-07-15T02:45:29;22.30;90.10
7498;DHT22;3790;48.806;9.140;2022-07-15T02:50:30;22.30;90.20
7498;DHT22;3790;48.806;9.140;2022-07-15T02:55:39;22.30;90.20
7498;DHT22;3790;48.806;9.140;2022-07-15T03:00:39;22.20;90.20
7498;DHT22;3790;48.806;9.140;2022-07-15T03:05:40;22.10;90.30
7498;DHT22;3790;48.806;9.140;2022-07-15T03:10:41;22.10;90.30
7498;DHT22;3790;48.806;9.140;2022-07-15T03:15:41;22.00;90.30
7498;DHT22;3790;48.806;9.140;2022-07-15T03:20:42;22.00;90.40
7498;DHT22;3790;48.806;9.140;2022-07-15T03:25:42;21.90;90.40
7498;DHT22;3790;48.806;9.140;2022-07-15T03:30:43;21.80;90.30
7498;DHT22;3790;48.806;9.140;2022-07-15T03:35:43;21.80;90.40
7498;DHT22;3790;48.806;9.140;2022-07-15T03:40:44;21.70;90.40
7498;DHT22;3790;48.806;9.140;2022-07-15T03:45:44;21.80;90.40
7498;DHT22;3790;48.806;9.140;2022-07-15T03:50:45;21.80;90.50
7498;DHT22;3790;48.806;9.140;2022-07-15T03:55:45;21.70;90.40
7498;DHT22;3790;48.806;9.140;2022-07-15T04:00:46;21.70;90.50
7498;DHT22;3790;48.806;9.140;2022-07-15T04:05:46;21.70;90.60
7498;DHT22;3790;48.806;9.140;2022-07-15T04:10:47;21.60;90.70
7498;DHT22;3790;48.806;9.140;2022-07-15T04:15:47;21.60;90.70
7498;DHT22;3790;48.806;9.140;2022-07-15T04:20:48;21.60;90.80
7498;DHT22;3790;48.806;9.140;2022-07-15T04:25:49;21.50;90.80
7498;DHT22;3790;48.806;9.140;2022-07-15T04:30:52;21.50;90.90
7498;DHT22;3790;48.806;9.140;2022-07-15T04:35:52;21.50;90.90
7498;DHT22;3790;48.806;9.140;2022-07-15T04:40:54;21.50;90.90
7498;DHT22;3790;48.806;9.140;2022-07-15T04:45:55;21.50;91.10
7498;DHT22;3790;48.806;9.140;2022-07-15T04:50:55;21.50;91.20
7498;DHT22;3790;48.806;9.140;2022-07-15T04:55:57;21.50;91.20
7498;DHT22;3790;48.806;9.140;2022-07-15T05:00:58;21.50;91.30
7498;DHT22;3790;48.806;9.140;2022-07-15T05:05:58;21.50;91.30
7498;DHT22;3790;48.806;9.140;2022-07-15T05:10:59;21.50;91.50
7498;DHT22;3790;48.806;9.140;2022-07-15T05:16:11;21.60;91.60
7498;DHT22;3790;48.806;9.140;2022-07-15T05:21:18;21.50;91.60
7498;DHT22;3790;48.806;9.140;2022-07-15T05:26:29;21.60;91.60
7498;DHT22;3790;48.806;9.140;2022-07-15T05:31:29;21.60;91.60
7498;DHT22;3790;48.806;9.140;2022-07-15T05:36:45;21.60;91.60
7498;DHT22;3790;48.806;9.140;2022-07-15T05:41:46;21.70;91.80
7498;DHT22;3790;48.806;9.140;2022-07-15T05:46:46;21.70;91.80
7498;DHT22;3790;48.806;9.140;2022-07-15T05:51:47;21.70;91.80
7498;DHT22;3790;48.806;9.140;2022-07-15T05:56:47;21.80;91.90
7498;DHT22;3790;48.806;9.140;2022-07-15T06:01:50;21.80;91.90
7498;DHT22;3790;48.806;9.140;2022-07-15T06:06:50;21.90;92.00
7498;DHT22;3790;48.806;9.140;2022-07-15T06:11:51;21.90;92.00
7498;DHT22;3790;48.806;9.140;2022-07-15T06:16:52;21.90;92.10
7498;DHT22;3790;48.806;9.140;2022-07-15T06:21:52;21.90;92.10
7498;DHT22;3790;48.806;9.140;2022-07-15T06:26:53;22.00;92.20
7498;DHT22;3790;48.806;9.140;2022-07-15T06:31:53;22.00;92.20
7498;DHT22;3790;48.806;9.140;2022-07-15T06:37:07;22.10;92.30
7498;DHT22;3790;48.806;9.140;2022-07-15T06:42:08;22.10;92.30
7498;DHT22;3790;48.806;9.140;2022-07-15T06:47:09;22.20;92.30
7498;DHT22;3790;48.806;9.140;2022-07-15T06:52:12;22.30;92.30
7498;DHT22;3790;48.806;9.140;2022-07-15T06:57:13;22.30;92.40
7498;DHT22;3790;48.806;9.140;2022-07-15T07:02:14;22.40;92.40
7498;DHT22;3790;48.806;9.140;2022-07-15T07:07:15;22.40;92.30
7498;DHT22;3790;48.806;9.140;2022-07-15T07:12:15;22.40;92.20
7498;DHT22;3790;48.806;9.140;2022-07-15T07:17:18;22.50;92.20
7498;DHT22;3790;48.806;9.140;2022-07-15T07:22:19;22.60;92.10
7498;DHT22;3790;48.806;9.140;2022-07-15T07:27:20;22.60;92.10
7498;DHT22;3790;48.806;9.140;2022-07-15T07:32:20;22.70;92.00
7498;DHT22;3790;48.806;9.140;2022-07-15T07:37:21;22.80;91.90
7498;DHT22;3790;48.806;9.140;2022-07-15T07:42:22;22.80;91.80
7498;DHT22;3790;48.806;9.140;2022-07-15T07:47:22;22.80;91.70
7498;DHT22;3790;48.806;9.140;2022-07-15T07:52:23;22.80;91.60
7498;DHT22;3790;48.806;9.140;2022-07-15T07:57:28;22.90;91.60
7498;DHT22;3790;48.806;9.140;2022-07-15T08:02:29;23.00;91.50
7498;DHT22;3790;48.806;9.140;2022-07-15T08:07:29;23.00;91.30
7498;DHT22;3790;48.806;9.140;2022-07-15T08:12:30;23.00;91.20
7498;DHT22;3790;48.806;9.140;2022-07-15T08:17:33;23.00;91.00
7498;DHT22;3790;48.806;9.140;2022-07-15T08:22:37;23.10;91.00
7498;DHT22;3790;48.806;9.140;2022-07-15T08:27:37;23.10;90.90
7498;DHT22;3790;48.806;9.140;2022-07-15T08:32:38;23.10;90.80
7498;DHT22;3790;48.806;9.140;2022-07-15T08:37:38;23.20;90.80
7498;DHT22;3790;48.806;9.140;2022-07-15T08:42:39;23.20;90.80
7498;DHT22;3790;48.806;9.140;2022-07-15T08:47:44;23.20;90.60
7498;DHT22;3790;48.806;9.140;2022-07-15T08:52:46;23.30;90.50
7498;DHT22;3790;48.806;9.140;2022-07-15T08:57:49;23.30;90.30
7498;DHT22;3790;48.806;9.140;2022-07-15T09:02:50;23.30;90.30
7498;DHT22;3790;48.806;9.140;2022-07-15T09:08:14;23.40;90.30
7498;DHT22;3790;48.806;9.140;2022-07-15T09:18:35;23.40;90.20
7498;DHT22;3790;48.806;9.140;2022-07-15T09:23:36;23.50;90.30
7498;DHT22;3790;48.806;9.140;2022-07-15T09:28:41;23.50;90.20
7498;DHT22;3790;48.806;9.140;2022-07-15T09:33:42;23.50;90.10
7498;DHT22;3790;48.806;9.140;2022-07-15T09:38:50;23.70;90.20
7498;DHT22;3790;48.806;9.140;2022-07-15T09:49:06;23.70;90.00
7498;DHT22;3790;48.806;9.140;2022-07-15T09:54:07;23.80;89.90
7498;DHT22;3790;48.806;9.140;2022-07-15T09:59:08;23.70;89.70
7498;DHT22;3790;48.806;9.140;2022-07-15T10:04:12;23.90;89.80
7498;DHT22;3790;48.806;9.140;2022-07-15T10:09:12;23.90;89.60
7498;DHT22;3790;48.806;9.140;2022-07-15T10:42:00;24.20;88.90
7498;DHT22;3790;48.806;9.140;2022-07-15T10:52:17;24.30;88.60
7498;DHT22;3790;48.806;9.140;2022-07-15T10:57:19;24.30;88.30
7498;DHT22;3790;48.806;9.140;2022-07-15T11:02:22;24.40;88.20
7498;DHT22;3790;48.806;9.140;2022-07-15T11:07:24;24.40;88.10
7498;DHT22;3790;48.806;9.140;2022-07-15T11:17:48;24.50;87.80
7498;DHT22;3790;48.806;9.140;2022-07-15T11:22:54;24.60;87.80
7498;DHT22;3790;48.806;9.140;2022-07-15T11:28:13;24.60;87.70
7498;DHT22;3790;48.806;9.140;2022-07-15T11:33:17;24.60;87.50
7498;DHT22;3790;48.806;9.140;2022-07-15T11:38:20;24.60;87.40
7498;DHT22;3790;48.806;9.140;2022-07-15T11:43:29;24.70;87.50
7498;DHT22;3790;48.806;9.140;2022-07-15T11:48:49;24.80;87.50
7498;DHT22;3790;48.806;9.140;2022-07-15T11:53:50;24.80;87.40
7498;DHT22;3790;48.806;9.140;2022-07-15T11:58:52;24.80;87.20
7498;DHT22;3790;48.806;9.140;2022-07-15T12:03:54;24.90;87.20
7498;DHT22;3790;48.806;9.140;2022-07-15T12:09:00;25.00;87.20
7498;DHT22;3790;48.806;9.140;2022-07-15T12:14:22;24.90;86.90
7498;DHT22;3790;48.806;9.140;2022-07-15T12:19:24;24.90;86.70
7498;DHT22;3790;48.806;9.140;2022-07-15T12:24:53;25.00;86.70
7498;DHT22;3790;48.806;9.140;2022-07-15T12:30:01;25.10;86.50
7498;DHT22;3790;48.806;9.140;2022-07-15T12:35:05;25.10;86.50
7498;DHT22;3790;48.806;9.140;2022-07-15T12:40:11;25.10;86.50
7498;DHT22;3790;48.806;9.140;2022-07-15T12:45:19;25.20;86.50
7498;DHT22;3790;48.806;9.140;2022-07-15T12:50:21;25.30;86.30
7498;DHT22;3790;48.806;9.140;2022-07-15T12:55:24;25.30;86.20
7498;DHT22;3790;48.806;9.140;2022-07-15T13:00:25;25.40;86.30
7498;DHT22;3790;48.806;9.140;2022-07-15T13:05:36;25.40;86.20
7498;DHT22;3790;48.806;9.140;2022-07-15T13:10:43;25.40;86.00
7498;DHT22;3790;48.806;9.140;2022-07-15T13:15:46;25.50;85.90
7498;DHT22;3790;48.806;9.140;2022-07-15T13:20:57;25.50;85.90
7498;DHT22;3790;48.806;9.140;2022-07-15T13:25:58;25.50;85.90
7498;DHT22;3790;48.806;9.140;2022-07-15T13:30:59;25.60;86.00
7498;DHT22;3790;48.806;9.140;2022-07-15T13:35:59;25.70;85.80
7498;DHT22;3790;48.806;9.140;2022-07-15T13:41:00;25.80;85.80
7498;DHT22;3790;48.806;9.140;2022-07-15T13:46:01;25.80;85.80
7498;DHT22;3790;48.806;9.140;2022-07-15T13:51:01;25.80;85.40
7498;DHT22;3790;48.806;9.140;2022-07-15T13:56:20;25.90;86.10
7498;DHT22;3790;48.806;9.140;2022-07-15T14:01:21;26.00;85.30
7498;DHT22;3790;48.806;9.140;2022-07-15T14:06:29;26.10;85.30
7498;DHT22;3790;48.806;9.140;2022-07-15T14:11:31;26.20;85.10
7498;DHT22;3790;48.806;9.140;2022-07-15T14:16:31;26.20;85.10
7498;DHT22;3790;48.806;9.140;2022-07-15T14:21:32;26.30;85.00
7498;DHT22;3790;48.806;9.140;2022-07-15T14:26:32;26.30;84.80
7498;DHT22;3790;48.806;9.140;2022-07-15T14:31:36;26.20;84.70
7498;DHT22;3790;48.806;9.140;2022-07-15T14:36:36;26.30;84.50
7498;DHT22;3790;48.806;9.140;2022-07-15T14:41:37;26.20;84.40
7498;DHT22;3790;48.806;9.140;2022-07-15T14:46:40;26.20;84.20
7498;DHT22;3790;48.806;9.140;2022-07-15T14:56:37;26.20;83.10
7498;DHT22;3790;48.806;9.140;2022-07-15T15:01:38;26.20;83.80
7498;DHT22;3790;48.806;9.140;2022-07-15T15:06:38;26.20;83.70
7498;DHT22;3790;48.806;9.140;2022-07-15T15:11:39;26.20;83.70
7498;DHT22;3790;48.806;9.140;2022-07-15T15:16:39;26.10;83.70
7498;DHT22;3790;48.806;9.140;2022-07-15T15:21:40;26.20;83.70
7498;DHT22;3790;48.806;9.140;2022-07-15T15:26:41;26.10;83.70
7498;DHT22;3790;48.806;9.140;2022-07-15T15:31:44;26.10;83.50
7498;DHT22;3790;48.806;9.140;2022-07-15T15:36:46;26.10;83.30
7498;DHT22;3790;48.806;9.140;2022-07-15T15:41:46;26.20;83.10
7498;DHT22;3790;48.806;9.140;2022-07-15T15:46:50;26.20;83.00
7498;DHT22;3790;48.806;9.140;2022-07-15T15:51:50;26.20;82.80
7498;DHT22;3790;48.806;9.140;2022-07-15T15:56:51;26.30;82.80
7498;DHT22;3790;48.806;9.140;2022-07-15T16:01:51;26.40;82.70
7498;DHT22;3790;48.806;9.140;2022-07-15T16:06:52;26.50;82.60
7498;DHT22;3790;48.806;9.140;2022-07-15T16:11:52;26.80;82.50
7498;DHT22;3790;48.806;9.140;2022-07-15T16:16:53;27.30;82.60
7498;DHT22;3790;48.806;9.140;2022-07-15T16:21:54;28.00;82.10
7498;DHT22;3790;48.806;9.140;2022-07-15T16:27:13;28.60;81.20
7498;DHT22;3790;48.806;9.140;2022-07-15T16:32:13;28.90;80.10
7498;DHT22;3790;48.806;9.140;2022-07-15T16:37:14;29.00;79.30
7498;DHT22;3790;48.806;9.140;2022-07-15T16:42:14;29.00;78.80
7498;DHT22;3790;48.806;9.140;2022-07-15T16:47:22;28.80;78.50
7498;DHT22;3790;48.806;9.140;2022-07-15T16:52:22;28.80;78.50
7498;DHT22;3790;48.806;9.140;2022-07-15T16:57:23;28.70;78.40
7498;DHT22;3790;48.806;9.140;2022-07-15T17:02:24;28.90;78.50
7498;DHT22;3790;48.806;9.140;2022-07-15T17:07:24;29.20;78.30
7498;DHT22;3790;48.806;9.140;2022-07-15T17:12:27;29.70;77.80
7498;DHT22;3790;48.806;9.140;2022-07-15T17:17:27;30.20;76.90
7498;DHT22;3790;48.806;9.140;2022-07-15T17:22:28;30.50;76.20
7498;DHT22;3790;48.806;9.140;2022-07-15T17:27:28;30.50;75.90
7498;DHT22;3790;48.806;9.140;2022-07-15T17:32:31;30.30;75.60
7498;DHT22;3790;48.806;9.140;2022-07-15T17:37:32;30.10;75.40
7498;DHT22;3790;48.806;9.140;2022-07-15T17:42:32;29.60;75.10
7498;DHT22;3790;48.806;9.140;2022-07-15T17:47:33;29.30;75.00
7498;DHT22;3790;48.806;9.140;2022-07-15T17:52:34;28.90;75.10
7498;DHT22;3790;48.806;9.140;2022-07-15T17:57:37;28.50;75.00
7498;DHT22;3790;48.806;9.140;2022-07-15T18:02:38;28.10;75.10
7498;DHT22;3790;48.806;9.140;2022-07-15T18:07:38;27.90;75.10
7498;DHT22;3790;48.806;9.140;2022-07-15T18:12:39;27.70;74.90
7498;DHT22;3790;48.806;9.140;2022-07-15T18:17:39;27.50;75.00
7498;DHT22;3790;48.806;9.140;2022-07-15T18:22:42;27.20;75.10
7498;DHT22;3790;48.806;9.140;2022-07-15T18:27:43;27.00;75.20
7498;DHT22;3790;48.806;9.140;2022-07-15T18:32:44;26.80;75.30
7498;DHT22;3790;48.806;9.140;2022-07-15T18:37:45;26.70;75.30
7498;DHT22;3790;48.806;9.140;2022-07-15T18:43:05;26.50;75.40
7498;DHT22;3790;48.806;9.140;2022-07-15T18:48:11;26.40;75.40
7498;DHT22;3790;48.806;9.140;2022-07-15T18:53:14;26.20;75.60
7498;DHT22;3790;48.806;9.140;2022-07-15T18:58:18;26.00;75.70
7498;DHT22;3790;48.806;9.140;2022-07-15T19:03:27;25.90;75.80
7498;DHT22;3790;48.806;9.140;2022-07-15T19:08:37;25.70;75.80
7498;DHT22;3790;48.806;9.140;2022-07-15T19:13:37;25.70;76.10
7498;DHT22;3790;48.806;9.140;2022-07-15T19:18:38;25.60;76.10
7498;DHT22;3790;48.806;9.140;2022-07-15T19:23:39;25.40;76.30
7498;DHT22;3790;48.806;9.140;2022-07-15T19:28:39;25.30;76.40
7498;DHT22;3790;48.806;9.140;2022-07-15T19:33:42;25.20;76.30
7498;DHT22;3790;48.806;9.140;2022-07-15T19:38:43;25.10;76.50
7498;DHT22;3790;48.806;9.140;2022-07-15T19:43:44;25.00;76.60
7498;DHT22;3790;48.806;9.140;2022-07-15T19:48:44;24.90;76.70
7498;DHT22;3790;48.806;9.140;2022-07-15T19:53:47;24.80;76.80
7498;DHT22;3790;48.806;9.140;2022-07-15T19:58:48;24.70;76.80
7498;DHT22;3790;48.806;9.140;2022-07-15T20:03:48;24.60;76.90
7498;DHT22;3790;48.806;9.140;2022-07-15T20:08:49;24.60;77.00
7498;DHT22;3790;48.806;9.140;2022-07-15T20:13:49;24.40;77.00
7498;DHT22;3790;48.806;9.140;2022-07-15T20:18:50;24.40;77.20
7498;DHT22;3790;48.806;9.140;2022-07-15T20:23:50;24.30;77.10
7498;DHT22;3790;48.806;9.140;2022-07-15T20:28:51;24.30;77.10
7498;DHT22;3790;48.806;9.140;2022-07-15T20:33:52;24.20;77.20
7498;DHT22;3790;48.806;9.140;2022-07-15T20:38:52;24.00;77.20
7498;DHT22;3790;48.806;9.140;2022-07-15T20:43:53;24.00;77.20
7498;DHT22;3790;48.806;9.140;2022-07-15T20:48:53;24.00;77.30
7498;DHT22;3790;48.806;9.140;2022-07-15T20:53:54;23.90;77.30
7498;DHT22;3790;48.806;9.140;2022-07-15T20:58:54;23.80;77.30
7498;DHT22;3790;48.806;9.140;2022-07-15T21:03:55;23.80;77.50
7498;DHT22;3790;48.806;9.140;2022-07-15T21:08:55;23.70;77.50
7498;DHT22;3790;48.806;9.140;2022-07-15T21:13:56;23.60;77.50
7498;DHT22;3790;48.806;9.140;2022-07-15T21:18:56;23.50;77.50
7498;DHT22;3790;48.806;9.140;2022-07-15T21:23:59;23.60;77.60
7498;DHT22;3790;48.806;9.140;2022-07-15T21:35:44;23.40;77.60
7498;DHT22;3790;48.806;9.140;2022-07-15T21:40:39;23.40;77.70
7498;DHT22;3790;48.806;9.140;2022-07-15T21:45:40;23.30;77.60
7498;DHT22;3790;48.806;9.140;2022-07-15T21:50:52;23.20;77.70
7498;DHT22;3790;48.806;9.140;2022-07-15T21:56:00;23.10;77.70
7498;DHT22;3790;48.806;9.140;2022-07-15T22:01:00;23.10;77.80
7498;DHT22;3790;48.806;9.140;2022-07-15T22:06:05;23.10;78.00
7498;DHT22;3790;48.806;9.140;2022-07-15T22:11:08;23.00;78.10
7498;DHT22;3790;48.806;9.140;2022-07-15T22:16:09;22.90;78.20
7498;DHT22;3790;48.806;9.140;2022-07-15T22:21:10;22.90;78.40
7498;DHT22;3790;48.806;9.140;2022-07-15T22:26:14;22.80;78.40
7498;DHT22;3790;48.806;9.140;2022-07-15T22:31:15;22.70;78.50
7498;DHT22;3790;48.806;9.140;2022-07-15T22:36:16;22.60;78.50
7498;DHT22;3790;48.806;9.140;2022-07-15T22:41:19;22.50;78.60
7498;DHT22;3790;48.806;9.140;2022-07-15T22:46:20;22.50;78.80
7498;DHT22;3790;48.806;9.140;2022-07-15T22:51:23;22.50;78.90
7498;DHT22;3790;48.806;9.140;2022-07-15T22:56:23;22.40;78.90
7498;DHT22;3790;48.806;9.140;2022-07-15T23:01:24;22.40;79.10
7498;DHT22;3790;48.806;9.140;2022-07-15T23:06:24;22.30;79.20
7498;DHT22;3790;48.806;9.140;2022-07-15T23:11:25;22.20;79.30
7498;DHT22;3790;48.806;9.140;2022-07-15T23:16:26;22.10;79.40
7498;DHT22;3790;48.806;9.140;2022-07-15T23:21:26;22.10;79.60
7498;DHT22;3790;48.806;9.140;2022-07-15T23:26:28;22.10;79.70
7498;DHT22;3790;48.806;9.140;2022-07-15T23:31:29;22.00;79.70
7498;DHT22;3790;48.806;9.140;2022-07-15T23:36:30;21.90;79.60
7498;DHT22;3790;48.806;9.140;2022-07-15T23:41:30;21.90;79.60
7498;DHT22;3790;48.806;9.140;2022-07-15T23:46:31;21.90;79.60
7498;DHT22;3790;48.806;9.140;2022-07-15T23:51:32;21.80;79.50
7498;DHT22;3790;48.806;9.140;2022-07-15T23:56:32;21.80;79.90
